Time;durP1;ratioP1;P1;durP2;ratioP2;P2;SDS_P1;SDS_P2;PMS_P1;PMS_P2;Temp;Humidity;BMP_temperature;BMP_pressure;BME280_temperature;BME280_humidity;BME280_pressure;Samples;Min_cycle;Max_cycle;Signal;HPM_P1;HPM_P2
2022/05/11 00:01:38;;;;;;;3.75;1.20;;;;;;;22.65;41.43;101256.41;5095600;28;20432;-63
2022/05/11 00:04:06;;;;;;;3.42;1.60;;;;;;;22.66;41.58;101266.06;5094456;28;20063;-63
2022/05/11 00:06:32;;;;;;;2.85;1.42;;;;;;;22.64;41.46;101263.56;5095315;28;20379;-62
2022/05/11 00:09:01;;;;;;;2.67;1.38;;;;;;;22.63;41.35;101258.41;5094987;28;20110;-63
2022/05/11 00:11:30;;;;;;;3.58;1.60;;;;;;;22.63;41.35;101261.88;5094606;28;20565;-63
2022/05/11 00:13:57;;;;;;;2.92;1.38;;;;;;;22.64;41.44;101260.09;5095258;28;20024;-62
2022/05/11 00:16:27;;;;;;;4.53;1.80;;;;;;;22.63;41.45;101250.44;5095208;28;20101;-63
2022/05/11 00:18:53;;;;;;;3.33;1.55;;;;;;;22.66;41.36;101244.00;5094201;28;20077;-63
2022/05/11 00:21:24;;;;;;;3.95;1.50;;;;;;;22.63;41.47;101243.28;5095453;28;20019;-63
2022/05/11 00:23:51;;;;;;;3.45;1.67;;;;;;;22.63;41.21;101240.63;5095040;28;20073;-63
2022/05/11 00:26:17;;;;;;;4.38;1.50;;;;;;;22.62;41.41;101238.13;5094672;28;20024;-64
2022/05/11 00:28:42;;;;;;;3.00;1.40;;;;;;;22.62;41.33;101238.13;5094951;28;20032;-63
2022/05/11 00:31:08;;;;;;;3.78;1.60;;;;;;;22.60;41.26;101227.63;5094717;28;20142;-63
2022/05/11 00:33:33;;;;;;;3.08;1.40;;;;;;;22.59;41.63;101228.63;5094284;28;20139;-62
2022/05/11 00:36:02;;;;;;;3.10;1.50;;;;;;;22.59;41.15;101225.97;5094469;28;20115;-62
2022/05/11 00:38:28;;;;;;;3.85;1.60;;;;;;;22.58;41.42;101229.59;5094911;28;20033;-62
2022/05/11 00:40:57;;;;;;;3.40;1.60;;;;;;;22.58;41.53;101229.59;5093874;28;20024;-62
2022/05/11 00:43:49;;;;;;;3.33;1.50;;;;;;;22.60;41.23;101226.81;5094151;28;20051;-63
2022/05/11 00:46:17;;;;;;;6.18;1.80;;;;;;;22.58;41.49;101218.97;5093809;28;20032;-62
2022/05/11 00:51:34;;;;;;;3.22;1.40;;;;;;;22.58;41.33;101213.66;5094835;28;20107;-64
2022/05/11 00:54:02;;;;;;;2.40;1.30;;;;;;;22.58;41.29;101205.69;5093539;28;20054;-64
2022/05/11 00:56:27;;;;;;;2.97;1.42;;;;;;;22.57;41.35;101200.53;5094463;28;20111;-64
2022/05/11 00:59:04;;;;;;;3.72;1.52;;;;;;;22.57;41.41;101200.53;5094073;28;20050;-62
2022/05/11 01:01:30;;;;;;;3.13;1.50;;;;;;;22.57;41.17;101203.19;5093933;28;20028;-64
2022/05/11 01:04:04;;;;;;;3.92;1.50;;;;;;;22.56;41.30;101199.72;5094116;28;20032;-63
2022/05/11 01:06:31;;;;;;;2.90;1.20;;;;;;;22.56;41.37;101191.75;5094587;28;20051;-64
2022/05/11 01:09:00;;;;;;;4.07;1.60;;;;;;;22.58;41.33;101203.03;5093057;28;20028;-64
2022/05/11 01:11:28;;;;;;;2.33;1.27;;;;;;;22.57;41.37;101200.53;5094192;28;20476;-63
2022/05/11 01:13:54;;;;;;;4.18;1.70;;;;;;;22.58;41.15;101188.94;5094021;28;20134;-63
2022/05/11 01:16:23;;;;;;;5.53;1.40;;;;;;;22.55;41.25;101181.25;5093134;28;20036;-62
2022/05/11 01:18:52;;;;;;;3.05;1.40;;;;;;;22.56;41.39;101183.78;5093480;28;20024;-62
2022/05/11 01:21:17;;;;;;;2.60;1.30;;;;;;;22.56;41.29;101182.94;5094050;28;20028;-63
2022/05/11 01:23:57;;;;;;;2.93;1.67;;;;;;;22.56;41.31;101181.13;5093088;28;20410;-63
2022/05/11 01:26:22;;;;;;;3.17;1.40;;;;;;;22.55;41.35;101176.78;5094078;28;20269;-63
2022/05/11 01:28:49;;;;;;;2.97;1.40;;;;;;;22.56;41.49;101174.97;5093170;28;20016;-63
2022/05/11 01:31:16;;;;;;;3.35;1.50;;;;;;;22.55;41.36;101165.31;5093984;28;20028;-62
2022/05/11 01:33:47;;;;;;;2.70;1.60;;;;;;;22.54;41.24;101169.81;5094286;28;20028;-62
2022/05/11 01:36:26;;;;;;;2.63;1.25;;;;;;;22.54;41.39;101176.91;5092928;28;20020;-62
2022/05/11 01:38:56;;;;;;;3.72;1.40;;;;;;;22.53;41.32;101178.75;5094113;28;20108;-63
2022/05/11 01:41:47;;;;;;;3.42;1.42;;;;;;;22.52;41.33;101171.75;5093737;28;20444;-63
2022/05/11 01:44:16;;;;;;;3.28;1.55;;;;;;;22.54;41.23;101179.56;5082987;28;20036;-62
2022/05/11 01:46:48;;;;;;;3.10;1.52;;;;;;;22.54;41.31;101179.56;5093317;28;20020;-62
2022/05/11 01:49:14;;;;;;;3.00;1.30;;;;;;;22.54;41.39;101174.25;5093679;28;20020;-62
2022/05/11 01:51:40;;;;;;;2.67;1.40;;;;;;;22.51;41.50;101174.56;5092767;28;20020;-63
2022/05/11 01:54:05;;;;;;;3.25;1.40;;;;;;;22.53;41.28;101169.94;5092358;28;20038;-63
2022/05/11 01:56:40;;;;;;;2.90;1.38;;;;;;;22.52;41.51;101173.59;5092916;28;20028;-62
2022/05/11 01:59:05;;;;;;;3.22;1.40;;;;;;;22.53;41.17;101169.94;5092967;28;20107;-62
2022/05/11 02:01:33;;;;;;;3.00;1.50;;;;;;;22.52;41.35;101163.78;5093287;28;20055;-62
2022/05/11 02:04:00;;;;;;;3.70;1.80;;;;;;;22.52;41.28;101168.28;5092189;28;20032;-63
2022/05/11 02:09:09;;;;;;;2.65;1.25;;;;;;;22.51;41.27;101167.44;5093234;28;20031;-63
2022/05/11 02:11:34;;;;;;;3.08;1.48;;;;;;;22.50;41.08;101163.09;5092257;28;20103;-62
2022/05/11 02:14:01;;;;;;;3.33;1.40;;;;;;;22.51;41.47;101169.25;5091753;28;20043;-63
2022/05/11 02:16:26;;;;;;;3.30;1.67;;;;;;;22.49;41.30;101155.28;5092851;28;20072;-62
2022/05/11 02:18:53;;;;;;;3.63;1.55;;;;;;;22.50;41.03;101163.09;5091924;28;20070;-63
2022/05/11 02:21:19;;;;;;;3.22;1.50;;;;;;;22.50;41.31;101155.13;5093171;28;20020;-62
2022/05/11 02:23:44;;;;;;;2.28;1.35;;;;;;;22.49;41.32;101157.94;5092795;28;20353;-63
2022/05/11 02:26:14;;;;;;;3.88;1.50;;;;;;;22.48;41.17;101154.47;5091836;28;20036;-63
2022/05/11 02:28:39;;;;;;;3.08;1.30;;;;;;;22.49;41.10;101156.09;5093049;28;20024;-63
2022/05/11 02:31:07;;;;;;;2.92;1.40;;;;;;;22.49;41.21;101155.28;5092352;28;20032;-63
2022/05/11 02:33:32;;;;;;;3.88;1.42;;;;;;;22.49;41.28;101158.75;5092183;28;20081;-63
2022/05/11 02:35:58;;;;;;;3.03;1.40;;;;;;;22.49;41.42;101150.78;5092600;28;20032;-63
2022/05/11 02:38:26;;;;;;;3.08;1.50;;;;;;;22.49;41.45;101149.97;5092824;28;20073;-63
2022/05/11 02:40:52;;;;;;;4.10;2.10;;;;;;;22.48;41.46;101153.59;5091617;28;20024;-62
2022/05/11 02:43:18;;;;;;;2.35;1.25;;;;;;;22.46;41.22;101157.25;5092838;28;20042;-62
2022/05/11 02:45:44;;;;;;;2.72;1.45;;;;;;;22.47;41.37;101155.44;5092497;28;20082;-63
2022/05/11 02:48:12;;;;;;;2.67;1.40;;;;;;;22.47;41.15;101150.13;5092138;28;20020;-62
2022/05/11 02:50:43;;;;;;;3.47;1.40;;;;;;;22.48;41.11;101150.94;5092705;28;20039;-62
2022/05/11 02:53:09;;;;;;;3.47;1.30;;;;;;;22.47;41.42;101150.13;5091548;28;20552;-63
2022/05/11 02:55:41;;;;;;;2.22;1.20;;;;;;;22.46;41.42;101149.28;5092761;28;20024;-62
2022/05/11 02:58:06;;;;;;;3.47;1.30;;;;;;;22.46;41.21;101151.94;5092654;28;20024;-62
2022/05/11 03:00:32;;;;;;;3.65;1.45;;;;;;;22.46;41.33;101151.09;5091722;28;20472;-62
2022/05/11 03:03:02;;;;;;;3.10;1.30;;;;;;;22.45;41.27;101144.13;5092215;28;20039;-62
2022/05/11 03:05:27;;;;;;;3.47;1.40;;;;;;;22.47;41.17;101147.47;5094114;28;20099;-63
2022/05/11 03:07:56;;;;;;;3.20;1.30;;;;;;;22.46;41.13;101146.63;5095488;28;20020;-63
2022/05/11 03:10:21;;;;;;;1.95;1.00;;;;;;;22.45;41.22;101144.94;5096719;28;20349;-63
2022/05/11 03:12:47;;;;;;;3.00;1.65;;;;;;;22.46;41.02;101138.66;5096699;28;20124;-63
2022/05/11 03:15:12;;;;;;;2.50;1.40;;;;;;;22.45;41.28;101136.97;5095361;28;20023;-62
2022/05/11 03:17:38;;;;;;;2.95;1.42;;;;;;;22.45;41.15;101136.97;5096594;28;20020;-63
2022/05/11 03:20:05;;;;;;;2.90;1.20;;;;;;;22.45;41.24;101126.38;5096067;28;20093;-63
2022/05/11 03:22:30;;;;;;;3.67;1.27;;;;;;;22.43;41.17;101120.38;5095570;28;20063;-63
2022/05/11 03:24:55;;;;;;;2.78;1.38;;;;;;;22.43;41.23;101128.34;5096121;28;20517;-63
2022/05/11 03:27:21;;;;;;;4.18;1.38;;;;;;;22.44;41.19;101121.19;5096332;28;20031;-63
2022/05/11 03:29:47;;;;;;;5.13;1.30;;;;;;;22.43;41.33;101120.38;5095527;28;20031;-63
2022/05/11 03:34:56;;;;;;;4.03;1.58;;;;;;;22.43;41.32;101115.06;5095667;28;20059;-63
2022/05/11 03:37:22;;;;;;;4.40;1.40;;;;;;;22.42;41.42;101115.19;5095651;28;20468;-64
2022/05/11 03:39:50;;;;;;;3.05;1.50;;;;;;;22.43;41.26;101108.88;5096154;28;20273;-64
2022/05/11 03:42:18;;;;;;;2.50;1.30;;;;;;;22.42;41.47;101115.19;5095246;28;20024;-63
2022/05/11 03:44:44;;;;;;;2.70;1.30;;;;;;;22.41;41.17;101103.75;5095780;28;20499;-63
2022/05/11 03:47:09;;;;;;;2.20;1.10;;;;;;;22.43;41.25;101106.22;5095439;28;20032;-63
2022/05/11 03:49:34;;;;;;;4.20;1.50;;;;;;;22.42;41.29;101102.75;5094891;28;20050;-63
2022/05/11 03:52:04;;;;;;;3.20;1.33;;;;;;;22.41;41.16;101097.59;5095585;28;20054;-63
2022/05/11 03:54:29;;;;;;;2.35;1.17;;;;;;;22.42;41.42;101099.28;5095507;28;20024;-63
2022/05/11 03:56:54;;;;;;;2.63;1.20;;;;;;;22.41;41.18;101093.13;5094693;28;20035;-64
2022/05/11 03:59:19;;;;;;;3.13;1.40;;;;;;;22.42;41.09;101100.09;5095728;28;20395;-62
2022/05/11 04:01:45;;;;;;;2.88;1.30;;;;;;;22.42;41.26;101104.59;5095581;28;20269;-63
2022/05/11 04:04:10;;;;;;;2.72;1.30;;;;;;;22.40;41.32;101106.56;5094261;28;20024;-63
2022/05/11 04:06:36;;;;;;;2.30;1.20;;;;;;;22.40;41.40;101102.06;5095628;28;20375;-63
2022/05/11 04:09:01;;;;;;;3.22;1.52;;;;;;;22.40;41.20;101102.06;5095278;28;20157;-63
2022/05/11 04:11:28;;;;;;;2.40;1.23;;;;;;;22.40;41.29;101107.38;5094650;28;20103;-63
2022/05/11 04:14:00;;;;;;;2.90;1.30;;;;;;;22.41;41.24;101101.09;5095226;28;20034;-63
2022/05/11 04:16:25;;;;;;;4.78;1.30;;;;;;;22.41;41.21;101100.25;5094144;28;20040;-63
2022/05/11 04:18:51;;;;;;;2.88;1.40;;;;;;;22.41;41.05;101100.25;5094006;28;20027;-63
2022/05/11 04:21:17;;;;;;;2.70;1.30;;;;;;;22.40;41.23;101096.75;5095324;28;20044;-64
2022/05/11 04:23:43;;;;;;;1.77;1.10;;;;;;;22.39;41.28;101103.03;5095332;28;20444;-64
2022/05/11 04:26:09;;;;;;;3.80;1.60;;;;;;;22.39;41.24;101094.25;5093897;28;20292;-63
2022/05/11 04:28:35;;;;;;;3.38;1.35;;;;;;;22.38;41.29;101096.09;5095264;28;20032;-63
2022/05/11 04:31:05;;;;;;;2.90;1.40;;;;;;;22.39;41.24;101096.91;5094695;28;20035;-63
2022/05/11 04:33:31;;;;;;;2.67;1.90;;;;;;;22.40;41.37;101095.94;5094057;28;20035;-63
2022/05/11 04:35:57;;;;;;;1.92;1.20;;;;;;;22.40;41.26;101091.44;5094817;28;20020;-63
2022/05/11 04:38:22;;;;;;;3.17;1.27;;;;;;;22.40;41.41;101093.28;5094260;28;20024;-62
2022/05/11 04:40:48;;;;;;;2.75;1.30;;;;;;;22.39;41.32;101091.59;5094862;28;20027;-62
2022/05/11 04:43:20;;;;;;;3.30;1.30;;;;;;;22.38;41.17;101097.88;5094881;28;20020;-62
2022/05/11 04:45:46;;;;;;;3.38;1.30;;;;;;;22.38;41.29;101097.88;5093884;28;20027;-62
2022/05/11 04:48:13;;;;;;;2.38;0.95;;;;;;;22.37;41.08;101097.06;5094573;28;20375;-62
2022/05/11 04:50:43;;;;;;;2.53;1.38;;;;;;;22.38;41.08;101098.75;5094556;28;20413;-62
2022/05/11 04:53:11;;;;;;;2.17;1.20;;;;;;;22.37;41.28;101097.06;5093712;28;20032;-62
2022/05/11 04:55:36;;;;;;;3.15;1.38;;;;;;;22.37;41.21;101097.06;5094374;28;20392;-63
2022/05/11 04:58:04;;;;;;;2.17;1.20;;;;;;;22.35;41.45;101093.72;5094167;28;20022;-62
2022/05/11 05:00:29;;;;;;;3.00;1.33;;;;;;;22.36;41.34;101097.19;5093613;28;20105;-62
2022/05/11 05:02:54;;;;;;;2.08;1.10;;;;;;;22.36;41.28;101103.34;5094275;28;20024;-62
2022/05/11 05:05:20;;;;;;;3.03;1.13;;;;;;;22.36;41.54;101091.88;5094315;28;20056;-63
2022/05/11 05:07:45;;;;;;;2.67;1.23;;;;;;;22.36;41.23;101097.19;5093579;28;20271;-62
2022/05/11 05:10:13;;;;;;;3.33;1.15;;;;;;;22.35;41.45;101096.38;5093769;28;20272;-63
2022/05/11 05:12:43;;;;;;;4.72;1.30;;;;;;;22.34;41.29;101100.00;5094035;28;20102;-63
2022/05/11 05:15:12;;;;;;;2.30;1.30;;;;;;;22.35;41.54;101101.69;5092964;28;20336;-62
2022/05/11 05:17:38;;;;;;;2.05;1.10;;;;;;;22.35;41.42;101104.34;5094009;28;20032;-63
2022/05/11 05:20:07;;;;;;;2.80;1.40;;;;;;;22.36;41.39;101105.16;5093937;28;20050;-63
2022/05/11 05:22:34;;;;;;;3.63;1.52;;;;;;;22.35;41.56;101101.69;5093276;28;20276;-62
2022/05/11 05:25:00;;;;;;;2.80;1.40;;;;;;;22.35;41.27;101108.78;5093619;28;20107;-62
2022/05/11 05:27:25;;;;;;;2.70;1.30;;;;;;;22.35;41.43;101112.31;5093780;28;20115;-63
2022/05/11 05:32:38;;;;;;;3.47;1.20;;;;;;;22.35;41.57;101116.75;5094311;28;20288;-61
2022/05/11 05:35:11;;;;;;;3.28;1.20;;;;;;;22.35;41.48;101112.31;5092827;28;20126;-62
2022/05/11 05:37:38;;;;;;;1.85;1.10;;;;;;;22.34;41.66;101107.13;5093667;28;20456;-62
2022/05/11 05:40:05;;;;;;;2.72;1.30;;;;;;;22.34;41.52;101105.31;5093244;28;20056;-62
2022/05/11 05:42:30;;;;;;;1.80;1.10;;;;;;;22.34;41.41;101112.44;5093004;28;20020;-63
2022/05/11 05:44:56;;;;;;;2.92;1.38;;;;;;;22.34;41.49;101115.94;5093225;28;20364;-63
2022/05/11 05:47:21;;;;;;;2.88;1.25;;;;;;;22.33;41.55;101111.59;5093702;28;20028;-62
2022/05/11 05:49:47;;;;;;;2.97;1.10;;;;;;;22.34;41.43;101110.63;5092616;28;20036;-63
2022/05/11 05:52:17;;;;;;;4.28;1.40;;;;;;;22.34;41.43;101115.94;5092991;28;20107;-63
2022/05/11 05:54:43;;;;;;;3.75;1.25;;;;;;;22.33;41.48;101108.09;5093278;28;20468;-64
2022/05/11 05:57:09;;;;;;;2.40;1.30;;;;;;;22.35;41.56;101114.09;5092292;28;20032;-63
2022/05/11 05:59:34;;;;;;;3.75;1.35;;;;;;;22.34;41.55;101117.75;5093462;28;20088;-63
2022/05/11 06:02:00;;;;;;;2.55;1.30;;;;;;;22.33;41.42;101122.22;5093135;28;20059;-63
2022/05/11 06:04:25;;;;;;;2.88;1.17;;;;;;;22.35;41.55;101119.41;5093230;28;20021;-63
2022/05/11 06:06:51;;;;;;;3.63;1.58;;;;;;;22.33;41.81;101116.06;5093516;28;20421;-63
2022/05/11 06:09:16;;;;;;;2.85;1.30;;;;;;;22.34;41.56;101123.06;5093135;28;20028;-63
2022/05/11 06:11:42;;;;;;;2.53;1.00;;;;;;;22.33;41.53;101121.38;5092426;28;20467;-63
2022/05/11 06:14:07;;;;;;;3.38;1.10;;;;;;;22.32;41.40;101111.72;5092845;28;20609;-63
2022/05/11 06:16:35;;;;;;;2.53;1.17;;;;;;;22.38;41.06;101116.47;5092807;28;20487;-63
2022/05/11 06:19:00;;;;;;;3.17;1.48;;;;;;;22.37;41.18;101117.47;5091855;28;20447;-63
2022/05/11 06:21:29;;;;;;;2.17;1.10;;;;;;;22.38;41.28;101105.84;5092883;28;20051;-63
2022/05/11 06:23:55;;;;;;;4.03;1.33;;;;;;;22.39;41.13;101110.19;5091725;28;20287;-68
2022/05/11 06:26:21;;;;;;;3.38;1.10;;;;;;;22.38;41.42;101104.03;5093167;28;20024;-66
2022/05/11 06:28:49;;;;;;;2.78;1.30;;;;;;;22.38;41.52;101109.34;5093039;28;20105;-65
2022/05/11 06:31:14;;;;;;;2.90;1.08;;;;;;;22.39;41.46;101108.34;5092431;28;20024;-66
2022/05/11 06:33:41;;;;;;;3.50;1.13;;;;;;;22.38;41.75;101105.84;5092865;28;20049;-66
2022/05/11 06:36:08;;;;;;;2.53;1.15;;;;;;;22.39;41.76;101107.53;5092530;28;20272;-67
2022/05/11 06:38:34;;;;;;;3.63;1.10;;;;;;;22.38;41.72;101101.38;5092413;28;20162;-67
2022/05/11 06:41:10;;;;;;;2.53;1.10;;;;;;;22.38;42.16;101104.03;5092106;28;20025;-66
2022/05/11 06:43:36;;;;;;;2.88;1.10;;;;;;;22.38;42.05;101104.03;5092805;28;20028;-68
2022/05/11 06:46:01;;;;;;;3.15;1.15;;;;;;;22.38;42.14;101093.44;5091831;28;20020;-67
2022/05/11 06:48:26;;;;;;;2.90;1.17;;;;;;;22.38;41.87;101096.09;5092899;28;20031;-65
2022/05/11 06:50:51;;;;;;;3.10;1.30;;;;;;;22.37;42.30;101106.84;5092178;28;20280;-65
2022/05/11 06:53:17;;;;;;;2.37;1.00;;;;;;;22.39;42.12;101102.22;5092109;28;20273;-64
2022/05/11 07:01:14;;;;;;;4.20;1.38;;;;;;;22.40;42.09;101101.25;5070396;28;20036;-64
2022/05/11 07:03:39;;;;;;;2.42;1.25;;;;;;;22.39;42.24;101097.72;5092726;28;20451;-65
2022/05/11 07:06:08;;;;;;;3.83;1.15;;;;;;;22.33;42.48;101093.00;5091578;28;20029;-67
2022/05/11 07:08:40;;;;;;;4.50;1.20;;;;;;;22.36;42.50;101098.03;5092875;28;20031;-65
2022/05/11 07:13:53;;;;;;;3.35;1.13;;;;;;;22.34;42.88;101099.16;5091682;28;20074;-64
2022/05/11 07:16:19;;;;;;;2.40;1.08;;;;;;;22.39;42.63;101107.53;5092443;28;20048;-64
2022/05/11 07:18:45;;;;;;;2.80;1.20;;;;;;;22.40;42.67;101109.22;5092514;28;20075;-63
2022/05/11 07:21:14;;;;;;;3.30;1.02;;;;;;;22.42;42.66;101099.28;5097453;28;20077;-61
2022/05/11 07:23:49;;;;;;;5.78;1.65;;;;;;;22.46;42.48;101108.59;5105242;28;20035;-59
2022/05/11 07:26:21;;;;;;;7.07;1.35;;;;;;;22.52;42.11;101105.34;5106433;28;20031;-66
2022/05/11 07:28:59;;;;;;;4.38;1.00;;;;;;;22.61;41.93;101103.66;5105774;28;20560;-64
2022/05/11 07:31:24;;;;;;;3.90;1.00;;;;;;;22.68;41.87;101102.06;5092263;28;20043;-61
2022/05/11 07:33:50;;;;;;;3.55;1.17;;;;;;;22.73;41.53;101104.28;5093503;28;20024;-67
2022/05/11 07:36:16;;;;;;;3.17;1.00;;;;;;;22.78;41.56;101107.31;5091938;28;20107;-64
2022/05/11 07:38:41;;;;;;;3.47;1.20;;;;;;;22.83;41.45;101105.06;5092464;28;20181;-60
2022/05/11 07:41:07;;;;;;;3.75;1.10;;;;;;;22.88;41.26;101096.66;5091900;28;20033;-63
2022/05/11 07:43:37;;;;;;;2.45;1.00;;;;;;;22.92;41.49;101101.50;5092054;28;20020;-62
2022/05/11 07:46:05;;;;;;;3.88;1.20;;;;;;;22.94;40.97;101096.88;5093000;28;20028;-63
2022/05/11 07:48:30;;;;;;;3.05;1.25;;;;;;;22.98;40.85;101100.06;5093081;28;20028;-63
2022/05/11 07:51:04;;;;;;;3.47;0.90;;;;;;;22.99;40.71;101099.91;5092510;28;20097;-65
2022/05/11 07:53:30;;;;;;;3.92;1.20;;;;;;;23.03;40.99;101107.59;5095194;28;20042;-64
2022/05/11 08:01:43;;;;;;;4.47;1.27;;;;;;;22.92;38.93;101103.31;5095861;28;20096;-62
2022/05/11 08:04:08;;;;;;;7.35;1.33;;;;;;;22.95;40.02;101108.34;5094278;28;20094;-64
2022/05/11 08:06:34;;;;;;;5.53;1.17;;;;;;;22.96;40.56;101110.84;5095586;28;20433;-63
2022/05/11 08:09:00;;;;;;;3.97;1.10;;;;;;;22.99;40.43;101112.38;5095195;28;20424;-63
2022/05/11 08:11:25;;;;;;;2.75;1.08;;;;;;;22.86;40.62;101086.16;5094776;28;20020;-64
2022/05/11 08:13:50;;;;;;;2.85;0.98;;;;;;;23.01;40.74;101105.06;5095160;28;20016;-62
2022/05/11 08:16:18;;;;;;;3.13;1.33;;;;;;;23.03;40.38;101111.06;5094942;28;20131;-62
2022/05/11 08:18:43;;;;;;;3.00;1.00;;;;;;;23.04;40.75;101109.28;5095418;28;20028;-63
2022/05/11 08:21:09;;;;;;;2.80;1.00;;;;;;;23.03;40.80;101102.28;5094977;28;20157;-63
2022/05/11 08:23:38;;;;;;;2.58;0.90;;;;;;;23.05;40.67;101108.25;5094569;28;20040;-64
2022/05/11 08:26:04;;;;;;;4.22;1.00;;;;;;;23.05;40.42;101105.59;5094733;28;20388;-63
2022/05/11 08:28:32;;;;;;;2.75;1.00;;;;;;;23.05;40.55;101095.81;5095119;28;20024;-63
2022/05/11 08:33:41;;;;;;;4.13;1.20;;;;;;;23.05;40.33;101100.28;5095319;28;20043;-62
2022/05/11 08:36:16;;;;;;;2.78;1.10;;;;;;;23.04;40.36;101102.13;5094820;28;20383;-62
2022/05/11 08:38:45;;;;;;;6.15;1.10;;;;;;;23.04;40.62;101088.81;5094228;28;20027;-62
2022/05/11 08:41:28;;;;;;;4.03;1.20;;;;;;;23.03;40.40;101095.13;5094621;28;20032;-62
2022/05/11 08:44:11;;;;;;;2.20;1.00;;;;;;;23.04;40.23;101111.94;5094658;28;20028;-63
2022/05/11 08:46:59;;;;;;;4.40;1.10;;;;;;;23.04;40.32;101102.13;5093977;28;20457;-63
2022/05/11 08:49:52;;;;;;;3.20;1.23;;;;;;;23.02;40.31;101098.78;5094515;28;20103;-63
2022/05/11 08:52:54;;;;;;;3.92;1.10;;;;;;;23.01;40.17;101099.75;5093866;28;20038;-63
2022/05/11 08:55:49;;;;;;;2.97;1.45;;;;;;;23.01;40.28;101099.75;5094520;28;20024;-64
2022/05/11 08:58:36;;;;;;;3.50;0.95;;;;;;;22.98;39.96;101090.25;5094473;28;20024;-62
2022/05/11 09:01:03;;;;;;;3.60;1.17;;;;;;;23.00;40.57;101093.63;5094039;28;20099;-62
2022/05/11 09:03:39;;;;;;;6.03;1.13;;;;;;;22.97;40.23;101088.59;5095131;28;20435;-61
2022/05/11 09:06:18;;;;;;;5.35;1.23;;;;;;;22.98;40.45;101097.41;5093459;28;20024;-61
2022/05/11 09:08:44;;;;;;;2.85;1.02;;;;;;;22.97;40.25;101085.09;5094781;28;20024;-66
2022/05/11 09:11:15;;;;;;;4.32;1.17;;;;;;;23.00;40.26;101101.59;5094464;28;20372;-62
2022/05/11 09:13:42;;;;;;;3.65;1.10;;;;;;;23.00;40.36;101093.63;5093886;28;20028;-60
2022/05/11 09:16:36;;;;;;;3.47;1.30;;;;;;;23.03;40.54;101087.16;5094045;28;20052;-65
2022/05/11 09:19:29;;;;;;;3.77;1.20;;;;;;;23.06;40.52;101078.88;5093993;28;20032;-70
2022/05/11 09:22:10;;;;;;;4.45;1.20;;;;;;;23.10;40.11;101074.16;5093041;28;20039;-64
2022/05/11 09:24:44;;;;;;;3.55;1.13;;;;;;;23.12;40.42;101069.50;5094365;28;20024;-64
2022/05/11 09:27:27;;;;;;;2.97;0.90;;;;;;;23.12;40.40;101074.81;5093167;28;20115;-65
2022/05/11 09:30:14;;;;;;;4.10;1.13;;;;;;;23.12;40.33;101075.63;5094050;28;20073;-65
2022/05/11 09:32:42;;;;;;;5.05;1.30;;;;;;;23.13;40.52;101079.13;5093965;28;20063;-63
2022/05/11 09:35:14;;;;;;;4.72;1.15;;;;;;;23.13;40.51;101077.31;5093832;28;20355;-64
2022/05/11 09:37:42;;;;;;;4.13;1.23;;;;;;;23.16;40.49;101070.84;5094274;28;20027;-63
2022/05/11 09:40:20;;;;;;;4.22;1.10;;;;;;;23.16;40.37;101065.53;5093605;28;20024;-63
2022/05/11 09:42:55;;;;;;;4.65;1.75;;;;;;;23.18;40.65;101067.06;5092904;28;20379;-63
2022/05/11 09:45:41;;;;;;;4.40;1.13;;;;;;;23.19;40.64;101070.53;5093609;28;20075;-62
2022/05/11 09:48:24;;;;;;;3.38;1.20;;;;;;;23.21;40.44;101065.06;5093093;28;20457;-62
2022/05/11 09:50:53;;;;;;;3.25;1.10;;;;;;;23.22;40.57;101064.09;5093450;28;20044;-63
2022/05/11 09:53:35;;;;;;;4.25;1.20;;;;;;;23.22;40.51;101056.13;5094577;28;20437;-61
2022/05/11 09:56:26;;;;;;;3.97;1.10;;;;;;;23.24;40.70;101062.97;5093804;28;20081;-63
2022/05/11 09:58:51;;;;;;;3.60;1.15;;;;;;;23.26;40.74;101060.97;5093502;28;20030;-62
2022/05/11 10:01:26;;;;;;;3.70;1.30;;;;;;;23.27;40.58;101053.84;5094323;28;20052;-61
2022/05/11 10:03:59;;;;;;;2.35;1.30;;;;;;;23.30;40.67;101050.88;5092897;28;20463;-61
2022/05/11 10:06:29;;;;;;;2.58;1.00;;;;;;;23.29;40.63;101063.34;5094866;28;20027;-60
2022/05/11 10:08:58;;;;;;;4.97;1.08;;;;;;;23.29;40.48;101049.19;5092293;28;20024;-60
2022/05/11 10:11:37;;;;;;;3.58;1.20;;;;;;;23.32;40.46;101059.50;5094479;28;20020;-61
2022/05/11 10:22:29;;;;;;;3.38;1.13;;;;;;;23.35;40.32;101056.56;5093666;28;20031;-65
2022/05/11 10:25:13;;;;;;;4.30;1.10;;;;;;;23.31;40.22;101052.56;5092222;28;20434;-64
2022/05/11 10:27:48;;;;;;;3.78;1.35;;;;;;;23.29;40.38;101055.38;5094977;28;20038;-63
2022/05/11 10:30:28;;;;;;;6.00;1.50;;;;;;;23.25;39.21;101043.34;5094572;28;20439;-62
2022/05/11 10:33:16;;;;;;;5.00;1.38;;;;;;;23.31;39.79;101048.06;5093687;28;20024;-61
2022/05/11 10:36:17;;;;;;;4.20;1.30;;;;;;;23.31;39.68;101037.41;5094087;28;20108;-61
2022/05/11 10:39:07;;;;;;;5.00;1.30;;;;;;;23.34;40.01;101037.13;5076733;28;20069;-61
2022/05/11 10:41:55;;;;;;;3.35;1.27;;;;;;;23.37;40.33;101041.31;5093151;28;20107;-62
2022/05/11 10:44:36;;;;;;;6.28;1.52;;;;;;;23.39;40.02;101039.31;5092376;28;20095;-61
2022/05/11 10:47:10;;;;;;;5.55;1.40;;;;;;;23.41;40.02;101029.34;5092879;28;20020;-61
2022/05/11 10:49:46;;;;;;;4.78;2.08;;;;;;;23.43;40.14;101038.03;5092834;28;20536;-61
2022/05/11 10:52:39;;;;;;;2.88;1.23;;;;;;;23.45;39.97;101035.19;5091650;28;20030;-62
2022/05/11 10:55:26;;;;;;;9.30;1.33;;;;;;;23.45;40.08;101022.75;5092495;28;20028;-61
2022/05/11 10:58:15;;;;;;;4.05;1.50;;;;;;;23.45;40.22;101027.19;5092280;28;20028;-62
2022/05/11 11:00:46;;;;;;;3.03;1.00;;;;;;;23.44;40.11;101021.06;5092745;28;20434;-61
2022/05/11 11:03:43;;;;;;;4.32;1.50;;;;;;;23.44;40.03;101012.25;5092570;28;20125;-62
2022/05/11 11:09:38;;;;;;;3.60;1.10;;;;;;;23.41;40.08;101021.38;5092560;28;20544;-61
2022/05/11 11:12:13;;;;;;;3.47;1.33;;;;;;;23.40;40.08;101000.25;5037438;28;20044;-61
2022/05/11 11:14:43;;;;;;;4.85;1.40;;;;;;;23.38;40.04;101011.03;5092623;28;20088;-61
2022/05/11 11:17:12;;;;;;;4.72;1.35;;;;;;;23.38;40.16;101011.03;5092001;28;20128;-61
2022/05/11 11:19:44;;;;;;;3.28;1.38;;;;;;;23.35;40.27;101001.56;5090792;28;20089;-61
2022/05/11 11:22:10;;;;;;;3.45;1.20;;;;;;;23.34;40.06;101013.19;5092371;28;20416;-60
2022/05/11 11:24:36;;;;;;;4.95;1.10;;;;;;;23.31;40.39;100999.38;5092417;28;20434;-59
2022/05/11 11:27:08;;;;;;;3.95;1.27;;;;;;;23.30;40.33;100998.50;5093822;28;20027;-61
2022/05/11 11:29:38;;;;;;;3.72;1.15;;;;;;;23.27;39.71;100998.00;5096535;28;20032;-60
2022/05/11 11:32:08;;;;;;;6.10;1.40;;;;;;;23.22;40.26;101001.13;5095996;28;20016;-60
2022/05/11 11:34:48;;;;;;;3.15;1.20;;;;;;;23.23;39.92;100996.66;5095409;28;20463;-60
2022/05/11 11:37:32;;;;;;;2.95;1.10;;;;;;;23.25;39.74;100989.34;5096133;28;20375;-61
2022/05/11 11:40:01;;;;;;;3.75;1.20;;;;;;;23.26;39.38;100988.38;5095849;28;20028;-62
2022/05/11 11:42:35;;;;;;;4.80;1.67;;;;;;;23.26;39.44;100983.88;5095189;28;20463;-62
2022/05/11 11:45:02;;;;;;;3.65;1.20;;;;;;;23.26;39.04;100978.56;5095659;28;20482;-62
2022/05/11 11:47:27;;;;;;;3.15;1.35;;;;;;;23.27;38.96;100972.22;5095510;28;20047;-61
2022/05/11 11:49:58;;;;;;;4.47;1.60;;;;;;;23.25;39.02;100976.06;5095582;28;20020;-60
2022/05/11 11:52:43;;;;;;;3.90;1.60;;;;;;;23.26;38.72;100975.06;5095943;28;20110;-60
2022/05/11 11:55:18;;;;;;;3.72;1.38;;;;;;;23.23;39.12;100978.03;5094594;28;20510;-60
2022/05/11 11:57:45;;;;;;;4.88;1.65;;;;;;;23.22;39.11;100982.50;5095968;28;20034;-60
2022/05/11 12:00:20;;;;;;;3.83;1.52;;;;;;;23.25;38.97;100976.06;5095531;28;20047;-60
2022/05/11 12:02:46;;;;;;;4.88;1.70;;;;;;;23.25;39.04;100963.59;5094918;28;20357;-59
2022/05/11 12:05:23;;;;;;;4.97;1.38;;;;;;;23.25;39.04;100963.59;5095170;28;20024;-61
2022/05/11 12:16:54;;;;;;;3.50;1.38;;;;;;;23.28;39.20;100949.16;5051899;28;20545;-59
2022/05/11 12:19:22;;;;;;;5.88;1.48;;;;;;;23.24;39.38;100953.09;5052986;28;20107;-59
2022/05/11 12:22:12;;;;;;;3.50;1.33;;;;;;;23.23;39.48;100952.28;5063494;28;20044;-63
2022/05/11 12:24:48;;;;;;;3.25;1.30;;;;;;;23.22;39.68;100965.72;5094326;28;20119;-59
2022/05/11 12:27:24;;;;;;;4.90;1.80;;;;;;;23.23;39.28;100935.50;5095082;28;20577;-59